createdAt,value
2023-10-17T00:00:19.234Z,99.90
2023-10-17T00:02:46.481Z,99.90
2023-10-17T00:05:15.849Z,99.90
2023-10-17T00:07:47.604Z,99.90
2023-10-17T00:10:20.997Z,99.90
2023-10-17T00:12:52.907Z,99.90
2023-10-17T00:15:39.065Z,99.90
2023-10-17T00:18:20.435Z,99.90
2023-10-17T00:20:52.332Z,99.90
2023-10-17T00:23:22.025Z,99.90
2023-10-17T00:25:52.157Z,99.90
2023-10-17T00:28:21.798Z,99.90
2023-10-17T00:30:54.135Z,99.90
2023-10-17T00:33:25.251Z,99.90
2023-10-17T00:35:52.595Z,99.90
2023-10-17T00:38:19.773Z,99.90
2023-10-17T00:40:50.513Z,99.90
2023-10-17T00:43:18.069Z,99.90
2023-10-17T00:45:49.169Z,99.90
2023-10-17T00:48:27.575Z,99.90
2023-10-17T00:51:02.261Z,99.90
2023-10-17T00:53:31.168Z,99.90
2023-10-17T00:55:58.399Z,99.90
2023-10-17T00:58:28.830Z,99.90
2023-10-17T01:01:16.372Z,99.90
2023-10-17T01:03:45.271Z,99.90
2023-10-17T01:06:38.475Z,99.90
2023-10-17T01:09:10.653Z,99.90
2023-10-17T01:11:42.135Z,99.90
2023-10-17T01:14:10.366Z,99.90
2023-10-17T01:16:37.695Z,99.90
2023-10-17T01:19:11.792Z,99.90
2023-10-17T01:21:42.237Z,99.90
2023-10-17T01:24:10.400Z,99.90
2023-10-17T01:26:39.344Z,99.90
2023-10-17T01:29:13.330Z,99.90
2023-10-17T01:31:44.340Z,99.90
2023-10-17T01:34:12.933Z,99.90
2023-10-17T01:36:40.334Z,99.90
2023-10-17T01:39:07.672Z,99.90
2023-10-17T01:41:35.210Z,99.90
2023-10-17T01:44:03.324Z,99.90
2023-10-17T01:46:30.794Z,99.90
2023-10-17T01:49:01.300Z,99.90
2023-10-17T01:51:30.040Z,99.90
2023-10-17T01:53:57.492Z,99.90
2023-10-17T01:56:28.283Z,99.90
2023-10-17T01:58:56.710Z,99.90
2023-10-17T02:01:30.922Z,99.90
2023-10-17T02:04:03.609Z,99.90
2023-10-17T02:06:34.527Z,99.90
2023-10-17T02:09:02.034Z,99.90
2023-10-17T02:11:29.617Z,99.90
2023-10-17T02:13:58.793Z,99.90
2023-10-17T02:16:29.935Z,99.90
2023-10-17T02:18:57.818Z,99.90
2023-10-17T02:21:26.336Z,99.90
2023-10-17T02:23:53.739Z,99.90
2023-10-17T02:26:30.375Z,99.90
2023-10-17T02:29:00.588Z,99.90
2023-10-17T02:31:30.960Z,99.90
2023-10-17T02:33:58.397Z,99.90
2023-10-17T02:36:26.295Z,99.90
2023-10-17T02:38:54.035Z,99.90
2023-10-17T02:41:23.256Z,99.90
2023-10-17T02:43:54.885Z,99.90
2023-10-17T02:46:27.762Z,99.90
2023-10-17T02:48:59.011Z,99.90
2023-10-17T02:51:26.208Z,99.90
2023-10-17T02:53:55.059Z,99.90
2023-10-17T02:56:23.053Z,99.90
2023-10-17T02:58:52.313Z,99.90
2023-10-17T03:01:19.861Z,99.90
2023-10-17T03:03:53.393Z,99.90
2023-10-17T03:06:20.729Z,99.90
2023-10-17T03:08:52.638Z,99.90
2023-10-17T03:11:37.001Z,99.90
2023-10-17T03:14:24.897Z,99.90
2023-10-17T03:16:55.922Z,99.90
2023-10-17T03:19:28.462Z,99.90
2023-10-17T03:21:56.623Z,99.90
2023-10-17T03:24:40.062Z,99.90
2023-10-17T03:27:09.916Z,99.90
2023-10-17T03:29:37.589Z,99.90
2023-10-17T03:32:05.521Z,99.90
2023-10-17T03:34:39.359Z,99.90
2023-10-17T03:37:26.293Z,99.90
2023-10-17T03:39:56.066Z,99.90
2023-10-17T03:42:45.683Z,99.90
2023-10-17T03:45:17.475Z,99.90
2023-10-17T03:47:50.681Z,99.90
2023-10-17T03:50:33.419Z,99.90
2023-10-17T03:53:06.273Z,99.90
2023-10-17T03:55:36.316Z,99.90
2023-10-17T03:58:09.824Z,99.90
2023-10-17T04:00:42.622Z,99.90
2023-10-17T04:03:19.949Z,99.90
2023-10-17T04:05:52.054Z,99.90
2023-10-17T04:08:20.496Z,99.90
2023-10-17T04:11:06.477Z,99.90
2023-10-17T04:13:36.611Z,99.90
2023-10-17T04:16:11.761Z,99.90
2023-10-17T04:18:39.426Z,99.90
2023-10-17T04:21:28.392Z,99.90
2023-10-17T04:23:56.824Z,99.90
2023-10-17T04:26:30.996Z,99.90
2023-10-17T04:29:02.508Z,99.90
2023-10-17T04:31:32.742Z,99.90
2023-10-17T04:34:07.842Z,99.90
2023-10-17T04:36:39.448Z,99.90
2023-10-17T04:39:20.851Z,99.90
2023-10-17T04:41:54.470Z,99.90
2023-10-17T04:44:24.627Z,99.90
2023-10-17T04:46:52.426Z,99.90
2023-10-17T04:49:20.817Z,99.90
2023-10-17T04:51:53.918Z,99.90
2023-10-17T04:54:31.125Z,99.90
2023-10-17T04:57:01.397Z,99.90
2023-10-17T04:59:47.318Z,99.90
2023-10-17T05:02:29.504Z,99.90
2023-10-17T05:04:57.197Z,99.90
2023-10-17T05:07:42.842Z,99.90
2023-10-17T05:10:22.756Z,99.90
2023-10-17T05:13:30.542Z,99.90
2023-10-17T05:16:16.492Z,99.90
2023-10-17T05:19:02.111Z,99.90
2023-10-17T05:21:48.287Z,99.90
2023-10-17T05:24:34.659Z,99.90
2023-10-17T05:27:20.532Z,99.90
2023-10-17T05:30:08.435Z,99.90
2023-10-17T05:32:54.401Z,99.90
2023-10-17T05:35:50.721Z,99.90
2023-10-17T05:38:36.806Z,99.90
2023-10-17T05:41:22.671Z,99.90
2023-10-17T05:44:08.251Z,99.90
2023-10-17T05:46:54.119Z,99.90
2023-10-17T05:49:39.964Z,99.90
2023-10-17T05:52:25.831Z,99.90
2023-10-17T05:55:27.966Z,99.90
2023-10-17T05:58:16.814Z,99.90
2023-10-17T06:01:02.608Z,99.90
2023-10-17T06:03:48.395Z,99.90
2023-10-17T06:06:34.507Z,99.90
2023-10-17T06:09:20.800Z,99.90
2023-10-17T06:12:06.793Z,99.90
2023-10-17T06:14:53.212Z,99.90
2023-10-17T06:17:29.151Z,99.90
2023-10-17T06:20:00.349Z,99.90
2023-10-17T06:22:27.786Z,99.90
2023-10-17T06:25:17.628Z,99.90
2023-10-17T06:28:04.797Z,99.90
2023-10-17T06:30:36.582Z,99.90
2023-10-17T06:33:19.182Z,99.90
2023-10-17T06:35:56.469Z,99.90
2023-10-17T06:38:31.818Z,99.90
2023-10-17T06:41:17.208Z,99.90
2023-10-17T06:43:47.971Z,99.90
2023-10-17T06:46:30.024Z,99.90
2023-10-17T06:48:59.456Z,99.90
2023-10-17T06:51:31.377Z,99.90
2023-10-17T06:54:06.888Z,99.90
2023-10-17T06:56:40.292Z,99.90
2023-10-17T06:59:22.879Z,99.90
2023-10-17T07:02:04.636Z,99.90
2023-10-17T07:04:34.427Z,99.90
2023-10-17T07:07:05.339Z,99.90
2023-10-17T07:09:39.042Z,99.90
2023-10-17T07:12:07.969Z,99.90
2023-10-17T07:14:38.272Z,99.90
2023-10-17T07:17:24.105Z,99.90
2023-10-17T07:20:01.148Z,99.90
2023-10-17T07:22:36.941Z,99.90
2023-10-17T07:25:13.115Z,99.90
2023-10-17T07:27:40.460Z,99.90
2023-10-17T07:30:14.903Z,99.90
2023-10-17T07:32:49.282Z,99.90
2023-10-17T07:35:25.739Z,99.90
2023-10-17T07:37:57.136Z,99.90
2023-10-17T07:40:40.138Z,99.90
2023-10-17T07:43:09.005Z,99.90
2023-10-17T07:45:40.788Z,99.90
2023-10-17T07:48:22.329Z,99.90
2023-10-17T07:50:51.899Z,99.90
2023-10-17T07:53:22.937Z,99.90
2023-10-17T07:56:05.791Z,99.90
2023-10-17T07:58:47.273Z,99.90
2023-10-17T08:01:18.547Z,99.90
2023-10-17T08:04:09.253Z,99.90
2023-10-17T08:06:38.503Z,99.90
2023-10-17T08:09:22.961Z,99.90
2023-10-17T08:12:00.498Z,99.90
2023-10-17T08:14:35.448Z,99.90
2023-10-17T08:17:03.033Z,99.90
2023-10-17T08:19:37.571Z,99.90
2023-10-17T08:22:07.491Z,99.90
2023-10-17T08:24:41.413Z,99.90
2023-10-17T08:27:15.193Z,99.90
2023-10-17T08:29:46.822Z,99.90
2023-10-17T08:32:23.058Z,99.90
2023-10-17T08:34:52.417Z,99.90
2023-10-17T08:37:27.805Z,99.90
2023-10-17T08:39:55.057Z,99.90
2023-10-17T08:42:32.068Z,99.90
2023-10-17T08:45:05.938Z,99.90
2023-10-17T08:47:33.663Z,99.90
2023-10-17T08:50:04.974Z,99.90
2023-10-17T08:52:38.953Z,99.90
2023-10-17T08:55:07.186Z,99.90
2023-10-17T08:57:34.278Z,99.90
2023-10-17T09:00:10.247Z,99.90
2023-10-17T09:02:44.448Z,99.90
2023-10-17T09:05:26.916Z,99.90
2023-10-17T09:07:57.857Z,99.90
2023-10-17T09:10:40.126Z,99.90
2023-10-17T09:13:19.790Z,99.90
2023-10-17T09:15:57.511Z,99.90
2023-10-17T09:18:29.978Z,99.90
2023-10-17T09:20:58.035Z,99.90
2023-10-17T09:23:30.267Z,99.90
2023-10-17T09:26:13.652Z,99.90
2023-10-17T09:28:41.145Z,99.90
2023-10-17T09:31:13.562Z,99.90
2023-10-17T09:33:44.914Z,99.90
2023-10-17T09:36:14.425Z,99.90
2023-10-17T09:38:48.092Z,99.90
2023-10-17T09:41:20.968Z,99.90
2023-10-17T09:43:54.949Z,99.90
2023-10-17T09:46:28.023Z,99.90
2023-10-17T09:49:01.618Z,99.90
2023-10-17T09:51:35.079Z,99.90
2023-10-17T09:54:05.964Z,99.90
2023-10-17T09:56:38.534Z,99.90
2023-10-17T09:59:09.823Z,99.30
2023-10-17T10:01:37.522Z,99.50
2023-10-17T10:04:09.083Z,99.20
2023-10-17T10:06:38.397Z,98.70
2023-10-17T10:09:15.562Z,98.50
2023-10-17T10:11:54.652Z,99.30
2023-10-17T10:14:24.934Z,99.30
2023-10-17T10:16:59.150Z,99.40
2023-10-17T10:19:47.374Z,99.90
2023-10-17T10:22:15.978Z,99.70
2023-10-17T10:24:46.638Z,99.90
2023-10-17T10:27:21.095Z,99.60
2023-10-17T10:29:54.050Z,99.70
2023-10-17T10:32:27.166Z,99.50
2023-10-17T10:34:54.907Z,99.90
2023-10-17T10:37:22.658Z,99.00
2023-10-17T10:40:32.735Z,99.20
2023-10-17T10:43:02.611Z,98.90
2023-10-17T10:45:57.907Z,99.60
2023-10-17T10:48:24.907Z,99.30
2023-10-17T10:50:59.125Z,99.40
2023-10-17T10:53:33.594Z,99.30
2023-10-17T10:56:01.746Z,99.70
2023-10-17T10:58:30.909Z,99.30
2023-10-17T11:01:09.116Z,98.50
2023-10-17T11:03:48.255Z,97.80
2023-10-17T11:06:18.914Z,97.20
2023-10-17T11:08:49.509Z,97.70
2023-10-17T11:11:23.872Z,98.10
2023-10-17T11:13:51.725Z,97.50
2023-10-17T11:16:21.139Z,97.50
2023-10-17T11:18:49.211Z,98.00
2023-10-17T11:21:21.061Z,98.10
2023-10-17T11:24:05.897Z,98.70
2023-10-17T11:26:35.565Z,97.80
2023-10-17T11:29:06.553Z,97.40
2023-10-17T11:31:34.076Z,97.80
2023-10-17T11:34:08.635Z,97.30
2023-10-17T11:36:48.998Z,97.00
2023-10-17T11:39:25.906Z,97.60
2023-10-17T11:41:57.319Z,97.60
2023-10-17T11:44:30.423Z,98.20
2023-10-17T11:47:00.208Z,98.30
2023-10-17T11:49:31.963Z,98.40
2023-10-17T11:52:13.883Z,98.70
2023-10-17T11:55:02.261Z,98.70
2023-10-17T11:57:31.079Z,98.70
2023-10-17T11:59:59.417Z,98.50
2023-10-17T12:02:27.312Z,98.80
2023-10-17T12:04:54.704Z,99.00
2023-10-17T12:07:22.513Z,98.50
2023-10-17T12:09:53.523Z,98.70
2023-10-17T12:12:20.986Z,98.50
2023-10-17T12:14:48.788Z,98.70
2023-10-17T12:17:20.618Z,98.80
2023-10-17T12:19:48.623Z,99.00
2023-10-17T12:22:16.131Z,98.60
2023-10-17T12:24:44.115Z,98.50
2023-10-17T12:27:13.886Z,98.10
2023-10-17T12:29:42.142Z,98.50
2023-10-17T12:32:12.191Z,98.50
2023-10-17T12:34:42.434Z,98.60
2023-10-17T12:37:14.105Z,98.30
2023-10-17T12:39:44.611Z,98.00
2023-10-17T12:42:12.911Z,98.30
2023-10-17T12:44:40.386Z,98.40
2023-10-17T12:47:13.119Z,98.50
2023-10-17T12:49:40.844Z,98.90
2023-10-17T12:52:08.008Z,99.10
2023-10-17T12:54:35.179Z,99.10
2023-10-17T12:57:08.474Z,98.30
2023-10-17T12:59:35.478Z,98.40
2023-10-17T13:02:02.561Z,98.10
2023-10-17T13:04:29.805Z,97.90
2023-10-17T13:06:57.157Z,98.00
2023-10-17T13:09:24.287Z,98.60
2023-10-17T13:11:51.447Z,98.30
2023-10-17T13:14:18.648Z,98.00
2023-10-17T13:16:46.851Z,98.10
2023-10-17T13:19:17.821Z,97.90
2023-10-17T13:21:46.978Z,98.30
2023-10-17T13:24:15.900Z,98.30
2023-10-17T13:26:45.125Z,97.50
2023-10-17T13:29:14.035Z,97.50
2023-10-17T13:31:41.373Z,97.80
2023-10-17T13:34:08.611Z,97.50
2023-10-17T13:36:35.931Z,97.60
2023-10-17T13:39:06.907Z,97.40
2023-10-17T13:41:34.055Z,97.50
2023-10-17T13:44:01.054Z,97.10
2023-10-17T13:46:28.710Z,97.60
2023-10-17T13:48:59.625Z,98.10
2023-10-17T13:51:35.960Z,97.70
2023-10-17T13:54:03.476Z,97.60
2023-10-17T13:56:33.396Z,97.70
2023-10-17T13:59:00.531Z,98.00
2023-10-17T14:01:33.808Z,98.00
2023-10-17T14:04:02.849Z,98.40
2023-10-17T14:06:35.985Z,98.20
2023-10-17T14:09:04.823Z,98.30
2023-10-17T14:11:32.528Z,98.10
2023-10-17T14:13:59.682Z,98.20
2023-10-17T14:16:26.716Z,97.80
2023-10-17T14:19:08.208Z,97.80
2023-10-17T14:21:40.950Z,98.40
2023-10-17T14:24:11.721Z,98.00
2023-10-17T14:26:39.483Z,98.30
2023-10-17T14:29:08.242Z,98.00
2023-10-17T14:31:37.588Z,98.70
2023-10-17T14:34:04.808Z,98.90
2023-10-17T14:36:32.396Z,98.90
2023-10-17T14:39:00.407Z,98.70
2023-10-17T14:41:28.133Z,98.60
2023-10-17T14:43:56.243Z,98.80
2023-10-17T14:46:23.738Z,98.60
2023-10-17T14:48:51.211Z,98.70
2023-10-17T14:51:18.419Z,98.60
2023-10-17T14:53:51.433Z,98.60
2023-10-17T14:56:22.300Z,98.90
2023-10-17T14:58:51.282Z,98.90
2023-10-17T15:01:19.105Z,99.20
2023-10-17T15:03:50.006Z,99.30
2023-10-17T15:06:17.295Z,99.60
2023-10-17T15:08:44.837Z,99.50
2023-10-17T15:11:12.349Z,99.70
2023-10-17T15:13:39.893Z,99.70
2023-10-17T15:16:17.419Z,99.80
2023-10-17T15:18:45.775Z,99.80
2023-10-17T15:21:21.552Z,99.80
2023-10-17T15:23:55.948Z,99.90
2023-10-17T15:26:24.588Z,99.90
2023-10-17T15:28:52.075Z,99.90
2023-10-17T15:31:19.269Z,99.90
2023-10-17T15:33:46.810Z,99.90
2023-10-17T15:36:14.749Z,99.90
2023-10-17T15:38:43.164Z,99.90
2023-10-17T15:41:15.495Z,99.90
2023-10-17T15:43:42.951Z,99.90
2023-10-17T15:46:15.593Z,99.90
2023-10-17T15:48:46.062Z,99.90
2023-10-17T15:51:20.869Z,99.90
2023-10-17T15:53:48.448Z,99.90
2023-10-17T15:56:15.868Z,99.90
2023-10-17T15:58:44.803Z,99.90
2023-10-17T16:01:14.438Z,99.90
2023-10-17T16:03:44.706Z,99.90
2023-10-17T16:06:12.124Z,99.90
2023-10-17T16:08:40.368Z,99.90
2023-10-17T16:11:07.456Z,99.90
2023-10-17T16:13:34.532Z,99.90
2023-10-17T16:16:02.449Z,99.90
2023-10-17T16:18:29.694Z,99.90
2023-10-17T16:20:56.772Z,99.90
2023-10-17T16:23:24.112Z,99.90
2023-10-17T16:25:51.200Z,99.90
2023-10-17T16:28:18.645Z,99.90
2023-10-17T16:30:45.877Z,99.90
2023-10-17T16:33:15.876Z,99.90
2023-10-17T16:35:46.579Z,99.90
2023-10-17T16:38:16.364Z,99.90
2023-10-17T16:40:47.393Z,99.90
2023-10-17T16:43:14.562Z,99.90
2023-10-17T16:45:49.338Z,99.90
2023-10-17T16:48:17.382Z,99.90
2023-10-17T16:50:48.763Z,99.90
2023-10-17T16:53:17.075Z,99.90
2023-10-17T16:55:44.500Z,99.90
2023-10-17T16:58:12.464Z,99.90
2023-10-17T17:00:40.034Z,99.90
2023-10-17T17:03:07.228Z,99.90
2023-10-17T17:05:34.402Z,99.90
2023-10-17T17:08:01.483Z,99.90
2023-10-17T17:10:29.634Z,99.90
2023-10-17T17:13:00.534Z,99.90
2023-10-17T17:15:28.854Z,99.90
2023-10-17T17:18:08.405Z,99.90
2023-10-17T17:20:43.388Z,99.90
2023-10-17T17:23:11.188Z,99.90
2023-10-17T17:25:40.096Z,99.90
2023-10-17T17:28:07.199Z,99.90
2023-10-17T17:30:36.975Z,99.90
2023-10-17T17:33:05.902Z,99.90
2023-10-17T17:35:33.005Z,99.90
2023-10-17T17:38:00.142Z,99.90
2023-10-17T17:40:27.334Z,99.90
2023-10-17T17:42:54.525Z,99.90
2023-10-17T17:45:21.809Z,99.90
2023-10-17T17:47:48.939Z,99.90
2023-10-17T17:50:18.639Z,99.90
2023-10-17T17:52:46.004Z,99.90
2023-10-17T17:55:14.970Z,99.90
2023-10-17T17:57:42.183Z,99.90
2023-10-17T18:00:11.763Z,99.90
2023-10-17T18:02:39.192Z,99.90
2023-10-17T18:05:06.892Z,99.90
2023-10-17T18:07:34.518Z,99.90
2023-10-17T18:10:01.936Z,99.90
2023-10-17T18:12:31.074Z,99.90
2023-10-17T18:14:58.527Z,99.90
2023-10-17T18:17:26.020Z,99.90
2023-10-17T18:19:55.393Z,99.90
2023-10-17T18:22:22.546Z,99.90
2023-10-17T18:24:49.602Z,99.90
2023-10-17T18:27:16.597Z,99.90
2023-10-17T18:29:43.590Z,99.90
2023-10-17T18:32:10.961Z,99.90
2023-10-17T18:34:38.900Z,99.90
2023-10-17T18:37:07.194Z,99.90
2023-10-17T18:39:39.005Z,99.90
2023-10-17T18:42:07.304Z,99.90
2023-10-17T18:44:35.619Z,99.90
2023-10-17T18:47:02.989Z,99.90
2023-10-17T18:49:31.288Z,99.90
2023-10-17T18:51:59.313Z,99.90
2023-10-17T18:54:27.366Z,99.90
2023-10-17T18:56:57.441Z,99.90
2023-10-17T18:59:25.241Z,99.90
2023-10-17T19:01:53.090Z,99.90
2023-10-17T19:04:21.082Z,99.90
2023-10-17T19:06:48.236Z,99.90
2023-10-17T19:09:16.404Z,99.90
2023-10-17T19:11:43.739Z,99.90
2023-10-17T19:14:11.023Z,99.90
2023-10-17T19:16:39.545Z,99.90
2023-10-17T19:19:10.274Z,99.90
2023-10-17T19:21:37.823Z,99.90
2023-10-17T19:24:05.361Z,99.90
2023-10-17T19:26:32.923Z,99.90
2023-10-17T19:29:00.020Z,99.90
2023-10-17T19:31:27.723Z,99.90
2023-10-17T19:33:55.964Z,99.90
2023-10-17T19:36:23.714Z,99.90
2023-10-17T19:38:51.164Z,99.90
2023-10-17T19:41:18.658Z,99.90
2023-10-17T19:43:45.831Z,99.90
2023-10-17T19:46:13.407Z,99.90
2023-10-17T19:48:43.986Z,99.90
2023-10-17T19:51:11.576Z,99.90
2023-10-17T19:53:40.083Z,99.90
2023-10-17T19:56:08.782Z,99.90
2023-10-17T19:58:36.307Z,99.90
2023-10-17T20:01:09.746Z,99.90
2023-10-17T20:03:37.302Z,99.90
2023-10-17T20:06:05.014Z,99.90
2023-10-17T20:08:32.186Z,99.90
2023-10-17T20:11:04.343Z,99.90
2023-10-17T20:13:32.686Z,99.90
2023-10-17T20:16:00.873Z,99.90
2023-10-17T20:18:28.864Z,99.90
2023-10-17T20:20:56.263Z,99.90
2023-10-17T20:23:23.623Z,99.90
2023-10-17T20:25:56.912Z,99.90
2023-10-17T20:28:24.063Z,99.90
2023-10-17T20:30:53.181Z,99.90
2023-10-17T20:33:20.873Z,99.90
2023-10-17T20:35:48.458Z,99.90
2023-10-17T20:38:16.765Z,99.90
2023-10-17T20:40:44.195Z,99.90
2023-10-17T20:43:11.476Z,99.90
2023-10-17T20:45:38.783Z,99.90
2023-10-17T20:48:06.337Z,99.90
2023-10-17T20:50:35.061Z,99.90
2023-10-17T20:53:02.166Z,99.90
2023-10-17T20:55:33.966Z,99.90
2023-10-17T20:58:04.029Z,99.90
2023-10-17T21:00:31.575Z,99.90
2023-10-17T21:02:58.853Z,99.90
2023-10-17T21:05:26.193Z,99.90
2023-10-17T21:07:53.931Z,99.90
2023-10-17T21:10:21.501Z,99.90
2023-10-17T21:12:48.702Z,99.90
2023-10-17T21:15:16.044Z,99.90
2023-10-17T21:17:43.326Z,99.90
2023-10-17T21:20:11.269Z,99.90
2023-10-17T21:22:38.644Z,99.90
2023-10-17T21:25:07.384Z,99.90
2023-10-17T21:27:34.742Z,99.90
2023-10-17T21:30:05.850Z,99.90
2023-10-17T21:32:35.161Z,99.90
2023-10-17T21:35:03.050Z,99.90
2023-10-17T21:37:44.829Z,99.90
2023-10-17T21:40:18.073Z,99.90
2023-10-17T21:42:45.473Z,99.90
2023-10-17T21:45:12.680Z,99.90
2023-10-17T21:47:43.924Z,99.90
2023-10-17T21:50:12.183Z,99.90
2023-10-17T21:52:39.196Z,99.90
2023-10-17T21:55:06.516Z,99.90
2023-10-17T21:57:33.860Z,99.90
2023-10-17T22:00:01.205Z,99.90
2023-10-17T22:02:28.706Z,99.90
2023-10-17T22:04:56.942Z,99.90
2023-10-17T22:07:25.223Z,99.90
2023-10-17T22:09:52.396Z,99.90
2023-10-17T22:12:20.482Z,99.90
2023-10-17T22:14:48.246Z,99.90
2023-10-17T22:17:16.237Z,99.90
2023-10-17T22:19:43.488Z,99.90
2023-10-17T22:22:10.822Z,99.90
2023-10-17T22:24:54.233Z,99.90
2023-10-17T22:27:22.920Z,99.90
2023-10-17T22:29:50.054Z,99.90
2023-10-17T22:32:17.438Z,99.90
2023-10-17T22:34:44.577Z,99.90
2023-10-17T22:37:11.714Z,99.90
2023-10-17T22:39:38.834Z,99.90
2023-10-17T22:42:06.053Z,99.90
2023-10-17T22:44:34.422Z,99.90
2023-10-17T22:47:02.960Z,99.90
2023-10-17T22:49:30.681Z,99.90
2023-10-17T22:51:58.189Z,99.90
2023-10-17T22:54:25.527Z,99.90
2023-10-17T22:56:53.004Z,99.90
2023-10-17T22:59:22.464Z,99.90
2023-10-17T23:01:49.624Z,99.90
2023-10-17T23:04:16.750Z,99.90
2023-10-17T23:06:44.006Z,99.90
2023-10-17T23:09:11.206Z,99.90
2023-10-17T23:11:39.318Z,99.90
2023-10-17T23:14:07.254Z,99.90
2023-10-17T23:16:35.418Z,99.90
2023-10-17T23:19:02.920Z,99.90
2023-10-17T23:21:32.700Z,99.90
2023-10-17T23:24:00.633Z,99.90
2023-10-17T23:26:29.127Z,99.90
2023-10-17T23:28:56.518Z,99.90
2023-10-17T23:31:25.624Z,99.90
2023-10-17T23:33:53.696Z,99.90
2023-10-17T23:36:21.537Z,99.90
2023-10-17T23:38:49.466Z,99.90
2023-10-17T23:41:16.765Z,99.90
2023-10-17T23:43:44.170Z,99.90
2023-10-17T23:46:14.020Z,99.90
2023-10-17T23:48:41.426Z,99.90
2023-10-17T23:51:09.903Z,99.90
2023-10-17T23:53:37.674Z,99.90
2023-10-17T23:56:09.383Z,99.90
2023-10-17T23:58:37.244Z,99.90
